Time;durP1;ratioP1;P1;durP2;ratioP2;P2;SDS_P1;SDS_P2;PMS_P1;PMS_P2;Temp;Humidity;BMP_temperature;BMP_pressure;BME280_temperature;BME280_humidity;BME280_pressure;Samples;Min_cycle;Max_cycle;Signal;HPM_P1;HPM_P2
2022/06/19 00:00:27;;;;;;;;;6.00;5.00;;;;;;;;5087748;27;45564;-71
2022/06/19 00:02:52;;;;;;;;;4.67;4.00;;;;;;;;5095624;27;45246;-71
2022/06/19 00:05:17;;;;;;;;;4.33;4.33;;;;;;;;5093688;27;45433;-71
2022/06/19 00:07:43;;;;;;;;;3.67;3.67;;;;;;;;5099376;27;46022;-71
2022/06/19 00:10:08;;;;;;;;;3.67;3.67;;;;;;;;5102168;27;45867;-71
2022/06/19 00:12:34;;;;;;;;;6.67;4.00;;;;;;;;5105878;27;49384;-72
2022/06/19 00:14:59;;;;;;;;;6.67;5.00;;;;;;;;5095463;27;45359;-71
2022/06/19 00:17:24;;;;;;;;;7.67;5.67;;;;;;;;5093265;27;46087;-72
2022/06/19 00:19:49;;;;;;;;;7.00;5.00;;;;;;;;5094640;27;45538;-72
2022/06/19 00:22:15;;;;;;;;;2.67;2.67;;;;;;;;5091585;27;45535;-72
2022/06/19 00:24:40;;;;;;;;;6.00;6.00;;;;;;;;5093863;27;45470;-71
2022/06/19 00:27:05;;;;;;;;;6.00;3.33;;;;;;;;5094073;27;45733;-72
2022/06/19 00:29:31;;;;;;;;;2.00;2.00;;;;;;;;5094114;27;45401;-71
2022/06/19 00:31:56;;;;;;;;;3.33;3.33;;;;;;;;5091204;27;45444;-71
2022/06/19 00:34:21;;;;;;;;;8.00;3.00;;;;;;;;5091972;27;45574;-70
2022/06/19 00:36:49;;;;;;;;;3.67;3.00;;;;;;;;5093170;27;45637;-71
2022/06/19 00:39:15;;;;;;;;;4.33;4.33;;;;;;;;5093262;27;45297;-70
2022/06/19 00:41:40;;;;;;;;;3.00;3.00;;;;;;;;5095457;27;45350;-71
2022/06/19 00:44:07;;;;;;;;;5.00;3.00;;;;;;;;5091660;27;45431;-70
2022/06/19 00:46:35;;;;;;;;;3.00;3.00;;;;;;;;5092449;27;46436;-70
2022/06/19 00:49:01;;;;;;;;;3.00;3.00;;;;;;;;5092204;27;45489;-71
2022/06/19 00:51:26;;;;;;;;;3.00;3.00;;;;;;;;5093334;27;45393;-71
2022/06/19 00:53:51;;;;;;;;;3.33;3.33;;;;;;;;5095197;27;45435;-71
2022/06/19 00:56:18;;;;;;;;;3.67;3.67;;;;;;;;5094244;27;45481;-70
2022/06/19 00:58:45;;;;;;;;;6.67;5.00;;;;;;;;5094314;27;45386;-70
2022/06/19 01:01:16;;;;;;;;;5.67;4.33;;;;;;;;5094933;27;45523;-71
2022/06/19 01:03:57;;;;;;;;;4.00;4.00;;;;;;;;5095228;27;45552;-71
2022/06/19 01:06:23;;;;;;;;;4.67;3.00;;;;;;;;5095418;27;45384;-71
2022/06/19 01:08:49;;;;;;;;;4.67;2.00;;;;;;;;5113149;27;45388;-70
2022/06/19 01:11:15;;;;;;;;;5.33;2.33;;;;;;;;5103301;27;45609;-71
2022/06/19 01:13:41;;;;;;;;;6.67;3.00;;;;;;;;5104239;27;45606;-71
2022/06/19 01:16:07;;;;;;;;;3.67;3.67;;;;;;;;5103902;27;46177;-70
2022/06/19 01:18:33;;;;;;;;;3.00;3.00;;;;;;;;5095037;27;45632;-70
2022/06/19 01:21:05;;;;;;;;;4.00;3.00;;;;;;;;5098218;27;45396;-71
2022/06/19 01:23:41;;;;;;;;;2.00;2.00;;;;;;;;5097274;27;45382;-70
2022/06/19 01:26:09;;;;;;;;;3.00;3.00;;;;;;;;5096125;27;46182;-70
2022/06/19 01:28:55;;;;;;;;;3.33;3.00;;;;;;;;5095388;27;45278;-70
2022/06/19 01:31:23;;;;;;;;;1.33;1.33;;;;;;;;5095621;27;45454;-71
2022/06/19 01:33:50;;;;;;;;;3.33;2.33;;;;;;;;5095925;27;45228;-71
2022/06/19 01:36:17;;;;;;;;;3.33;3.33;;;;;;;;5095460;27;47244;-70
2022/06/19 01:38:46;;;;;;;;;5.00;4.00;;;;;;;;5096421;27;45404;-71
2022/06/19 01:41:14;;;;;;;;;2.00;2.00;;;;;;;;5095644;27;45428;-71
2022/06/19 01:43:39;;;;;;;;;3.33;1.67;;;;;;;;5095341;27;45397;-70
2022/06/19 01:46:04;;;;;;;;;3.00;3.00;;;;;;;;5095637;27;46246;-71
2022/06/19 01:48:30;;;;;;;;;0.33;0.33;;;;;;;;5094587;27;45412;-71
2022/06/19 01:50:56;;;;;;;;;2.67;2.00;;;;;;;;5098094;27;45666;-71
2022/06/19 01:53:21;;;;;;;;;2.33;2.33;;;;;;;;5094698;27;45708;-71
2022/06/19 01:55:47;;;;;;;;;2.67;2.67;;;;;;;;5088644;27;47206;-71
2022/06/19 01:58:12;;;;;;;;;5.33;4.00;;;;;;;;5092350;27;45519;-71
2022/06/19 02:00:39;;;;;;;;;1.67;1.67;;;;;;;;5094454;27;45405;-71
2022/06/19 02:03:09;;;;;;;;;3.33;3.33;;;;;;;;5096339;27;45301;-71
2022/06/19 02:05:36;;;;;;;;;3.67;3.33;;;;;;;;5096620;27;46273;-71
2022/06/19 02:08:01;;;;;;;;;3.33;2.33;;;;;;;;5103075;27;45365;-71
2022/06/19 02:10:27;;;;;;;;;5.00;3.00;;;;;;;;5103156;27;45526;-71
2022/06/19 02:12:52;;;;;;;;;4.00;2.67;;;;;;;;5090742;27;45578;-71
2022/06/19 02:15:18;;;;;;;;;2.33;2.33;;;;;;;;5105144;27;45680;-71
2022/06/19 02:17:48;;;;;;;;;3.00;3.00;;;;;;;;5097542;27;45441;-71
2022/06/19 02:20:13;;;;;;;;;4.33;3.00;;;;;;;;5095475;27;45500;-71
2022/06/19 02:22:38;;;;;;;;;2.00;2.00;;;;;;;;5094981;27;45576;-71
2022/06/19 02:25:04;;;;;;;;;3.33;3.00;;;;;;;;5093744;27;46300;-71
2022/06/19 02:27:31;;;;;;;;;3.00;3.00;;;;;;;;5093011;27;45559;-70
2022/06/19 02:29:56;;;;;;;;;2.00;1.33;;;;;;;;5097682;27;45309;-71
2022/06/19 02:32:24;;;;;;;;;5.00;2.00;;;;;;;;5093788;27;45345;-71
2022/06/19 02:34:50;;;;;;;;;3.67;3.00;;;;;;;;5094888;27;46191;-71
2022/06/19 02:37:17;;;;;;;;;4.00;2.67;;;;;;;;5093693;27;45489;-71
2022/06/19 02:39:58;;;;;;;;;4.33;3.67;;;;;;;;5094692;27;45250;-71
2022/06/19 02:42:29;;;;;;;;;3.33;1.33;;;;;;;;5093634;27;45520;-71
2022/06/19 02:44:56;;;;;;;;;3.67;3.00;;;;;;;;5095022;27;46191;-71
2022/06/19 02:47:22;;;;;;;;;3.00;3.00;;;;;;;;5094719;27;45563;-71
2022/06/19 02:49:47;;;;;;;;;2.00;2.00;;;;;;;;5094314;27;45401;-71
2022/06/19 02:52:13;;;;;;;;;2.00;2.00;;;;;;;;5095129;27;45400;-71
2022/06/19 02:54:38;;;;;;;;;2.00;2.00;;;;;;;;5094607;27;46050;-71
2022/06/19 02:57:04;;;;;;;;;3.67;2.00;;;;;;;;5095565;27;45476;-70
2022/06/19 02:59:29;;;;;;;;;3.00;2.00;;;;;;;;5095570;27;45489;-71
2022/06/19 03:01:55;;;;;;;;;4.00;2.00;;;;;;;;5095231;27;45294;-71
2022/06/19 03:04:23;;;;;;;;;6.67;2.67;;;;;;;;5094609;27;46246;-71
2022/06/19 03:06:48;;;;;;;;;5.33;2.67;;;;;;;;5092923;27;45258;-71
2022/06/19 03:09:13;;;;;;;;;3.67;1.67;;;;;;;;5098239;27;45365;-70
2022/06/19 03:11:39;;;;;;;;;2.67;2.33;;;;;;;;5106857;27;45502;-71
2022/06/19 03:14:04;;;;;;;;;3.67;2.00;;;;;;;;5100812;27;45624;-71
2022/06/19 03:16:29;;;;;;;;;3.33;1.33;;;;;;;;5105951;27;45279;-71
2022/06/19 03:18:54;;;;;;;;;4.00;2.00;;;;;;;;5099703;27;45295;-71
2022/06/19 03:21:20;;;;;;;;;6.67;3.67;;;;;;;;5097887;27;45582;-70
2022/06/19 03:23:45;;;;;;;;;2.00;2.00;;;;;;;;5107267;27;45316;-71
2022/06/19 03:26:10;;;;;;;;;4.00;1.67;;;;;;;;5093829;27;45578;-71
2022/06/19 03:28:35;;;;;;;;;4.00;2.00;;;;;;;;5095006;27;45427;-71
2022/06/19 03:31:00;;;;;;;;;1.00;1.00;;;;;;;;5094004;27;45463;-71
2022/06/19 03:33:26;;;;;;;;;2.00;2.00;;;;;;;;5092878;27;46270;-71
2022/06/19 03:35:54;;;;;;;;;4.00;2.00;;;;;;;;5095550;27;46877;-71
2022/06/19 03:38:19;;;;;;;;;3.00;2.00;;;;;;;;5092222;27;45582;-71
2022/06/19 03:40:45;;;;;;;;;0.33;0.33;;;;;;;;5093983;27;45297;-71
2022/06/19 03:43:10;;;;;;;;;2.00;2.00;;;;;;;;5092754;27;47459;-71
2022/06/19 03:45:35;;;;;;;;;2.00;2.00;;;;;;;;5092239;27;45453;-71
2022/06/19 03:48:00;;;;;;;;;5.00;1.00;;;;;;;;5095754;27;45364;-71
2022/06/19 03:50:26;;;;;;;;;2.00;2.00;;;;;;;;5095070;27;45598;-71
2022/06/19 03:52:51;;;;;;;;;1.33;1.33;;;;;;;;5093291;27;46930;-71
2022/06/19 03:55:16;;;;;;;;;1.00;1.00;;;;;;;;5093205;27;45313;-71
2022/06/19 03:57:41;;;;;;;;;3.67;2.67;;;;;;;;5092213;27;45199;-71
2022/06/19 04:00:09;;;;;;;;;2.33;2.33;;;;;;;;5094611;27;45354;-71
2022/06/19 04:02:34;;;;;;;;;3.00;2.00;;;;;;;;5091074;27;47044;-71
2022/06/19 04:04:59;;;;;;;;;2.67;1.33;;;;;;;;5091054;27;45460;-71
2022/06/19 04:07:24;;;;;;;;;1.00;1.00;;;;;;;;5096104;27;45374;-70
2022/06/19 04:09:49;;;;;;;;;3.00;1.67;;;;;;;;5106583;27;45670;-70
2022/06/19 04:12:15;;;;;;;;;2.00;2.00;;;;;;;;5108337;27;46160;-71
2022/06/19 04:14:41;;;;;;;;;2.33;2.33;;;;;;;;5099291;27;45462;-71
2022/06/19 04:17:06;;;;;;;;;2.00;2.00;;;;;;;;5093813;27;45383;-71
2022/06/19 04:19:31;;;;;;;;;1.67;1.00;;;;;;;;5093470;27;45433;-70
2022/06/19 04:21:56;;;;;;;;;1.00;1.00;;;;;;;;5092038;27;45480;-71
2022/06/19 04:24:22;;;;;;;;;3.00;2.00;;;;;;;;5092790;27;45381;-71
2022/06/19 04:26:47;;;;;;;;;2.00;2.00;;;;;;;;5094810;27;45461;-71
2022/06/19 04:29:13;;;;;;;;;5.00;2.00;;;;;;;;5092895;27;45569;-71
2022/06/19 04:31:38;;;;;;;;;1.67;1.67;;;;;;;;5095568;27;46204;-71
2022/06/19 04:34:04;;;;;;;;;1.67;1.67;;;;;;;;5095629;27;45503;-71
2022/06/19 04:36:30;;;;;;;;;1.33;1.33;;;;;;;;5096397;27;45352;-71
2022/06/19 04:38:56;;;;;;;;;2.00;1.00;;;;;;;;5096055;27;45528;-71
2022/06/19 04:41:29;;;;;;;;;1.67;1.67;;;;;;;;5096369;27;46241;-71
2022/06/19 04:43:55;;;;;;;;;2.33;1.00;;;;;;;;5096352;27;45451;-71
2022/06/19 04:46:20;;;;;;;;;1.00;1.00;;;;;;;;5095424;27;45442;-71
2022/06/19 04:48:46;;;;;;;;;1.00;1.00;;;;;;;;5095866;27;45456;-71
2022/06/19 04:51:12;;;;;;;;;1.33;1.00;;;;;;;;5098739;27;47387;-71
2022/06/19 04:53:38;;;;;;;;;2.00;1.67;;;;;;;;5098405;27;45315;-71
2022/06/19 04:56:04;;;;;;;;;1.33;1.00;;;;;;;;5097806;27;45432;-70
2022/06/19 04:58:29;;;;;;;;;2.67;0.33;;;;;;;;5093922;27;45452;-70
2022/06/19 05:00:54;;;;;;;;;1.00;1.00;;;;;;;;5096341;27;47225;-71
2022/06/19 05:03:20;;;;;;;;;1.33;1.33;;;;;;;;5096162;27;45317;-71
2022/06/19 05:05:46;;;;;;;;;4.00;3.00;;;;;;;;5097101;27;45361;-70
2022/06/19 05:08:11;;;;;;;;;3.67;1.00;;;;;;;;5095556;27;45453;-71
2022/06/19 05:10:37;;;;;;;;;1.00;1.00;;;;;;;;5099707;27;45437;-71
2022/06/19 05:13:05;;;;;;;;;2.00;1.33;;;;;;;;5106518;27;45579;-71
2022/06/19 05:15:30;;;;;;;;;2.67;2.67;;;;;;;;5095182;27;45287;-71
2022/06/19 05:17:56;;;;;;;;;2.00;1.00;;;;;;;;5098297;27;45404;-71
2022/06/19 05:20:21;;;;;;;;;2.67;1.00;;;;;;;;5095692;27;46020;-71
2022/06/19 05:22:46;;;;;;;;;2.33;2.00;;;;;;;;5096130;27;45403;-71
2022/06/19 05:25:12;;;;;;;;;3.00;2.00;;;;;;;;5094956;27;45240;-71
2022/06/19 05:27:38;;;;;;;;;2.00;2.00;;;;;;;;5096148;27;45306;-71
2022/06/19 05:30:04;;;;;;;;;1.33;1.00;;;;;;;;5097576;27;47150;-71
2022/06/19 05:32:29;;;;;;;;;1.00;1.00;;;;;;;;5095447;27;45176;-71
2022/06/19 05:34:54;;;;;;;;;2.00;1.00;;;;;;;;5093863;27;45333;-71
2022/06/19 05:37:19;;;;;;;;;2.00;0.33;;;;;;;;5096204;27;45453;-71
2022/06/19 05:39:45;;;;;;;;;1.00;1.00;;;;;;;;5094470;27;46032;-71
2022/06/19 05:42:10;;;;;;;;;2.00;2.00;;;;;;;;5095936;27;45351;-71
2022/06/19 05:44:36;;;;;;;;;0.67;0.67;;;;;;;;5095597;27;45351;-70
2022/06/19 05:47:01;;;;;;;;;2.00;2.00;;;;;;;;5094440;27;45323;-71
2022/06/19 05:49:26;;;;;;;;;0.33;0.33;;;;;;;;5094040;27;45914;-70
2022/06/19 05:51:51;;;;;;;;;1.33;1.33;;;;;;;;5094409;27;45524;-71
2022/06/19 05:54:17;;;;;;;;;1.00;1.00;;;;;;;;5096335;27;47473;-71
2022/06/19 05:56:42;;;;;;;;;1.67;0.33;;;;;;;;5097933;27;46249;-70
2022/06/19 05:59:07;;;;;;;;;3.33;2.00;;;;;;;;5093789;27;46014;-70
2022/06/19 06:01:32;;;;;;;;;1.33;1.33;;;;;;;;5095341;27;45643;-70
2022/06/19 06:03:59;;;;;;;;;2.00;1.00;;;;;;;;5095685;27;45473;-71
2022/06/19 06:06:26;;;;;;;;;2.00;2.00;;;;;;;;5095115;27;45402;-71
2022/06/19 06:08:52;;;;;;;;;3.00;1.00;;;;;;;;5098224;27;45428;-70
2022/06/19 06:11:18;;;;;;;;;2.00;2.00;;;;;;;;5103374;27;45394;-71
2022/06/19 06:13:43;;;;;;;;;2.33;1.00;;;;;;;;5103098;27;45440;-71
2022/06/19 06:16:12;;;;;;;;;2.00;1.00;;;;;;;;5096540;27;45438;-71
2022/06/19 06:18:37;;;;;;;;;2.67;1.33;;;;;;;;5093395;27;46965;-71
2022/06/19 06:21:04;;;;;;;;;2.33;1.00;;;;;;;;5096349;27;45526;-71
2022/06/19 06:23:30;;;;;;;;;2.00;2.00;;;;;;;;5094721;27;45523;-71
2022/06/19 06:25:59;;;;;;;;;3.00;1.33;;;;;;;;5095004;27;45443;-71
2022/06/19 06:28:25;;;;;;;;;1.67;1.00;;;;;;;;5094699;27;46512;-71
2022/06/19 06:30:50;;;;;;;;;1.00;1.00;;;;;;;;5094135;27;49654;-71
2022/06/19 06:33:15;;;;;;;;;0.67;0.67;;;;;;;;5094719;27;45359;-71
2022/06/19 06:35:40;;;;;;;;;1.67;1.00;;;;;;;;5097431;27;45370;-71
2022/06/19 06:38:05;;;;;;;;;3.33;2.00;;;;;;;;5093477;27;46104;-71
2022/06/19 06:40:31;;;;;;;;;1.00;1.00;;;;;;;;5095341;27;45698;-71
2022/06/19 06:42:57;;;;;;;;;0.67;0.33;;;;;;;;5095312;27;45562;-71
2022/06/19 06:45:22;;;;;;;;;1.00;1.00;;;;;;;;5094348;27;45538;-71
2022/06/19 06:47:47;;;;;;;;;2.00;2.00;;;;;;;;5095366;27;45457;-71
2022/06/19 06:50:12;;;;;;;;;0.00;0.00;;;;;;;;5095083;27;45478;-71
2022/06/19 06:52:37;;;;;;;;;3.00;2.00;;;;;;;;5095217;27;45421;-71
2022/06/19 06:55:03;;;;;;;;;1.33;1.00;;;;;;;;5094472;27;45486;-71
2022/06/19 06:57:28;;;;;;;;;1.00;1.00;;;;;;;;5094631;27;45436;-71
2022/06/19 06:59:53;;;;;;;;;3.00;1.00;;;;;;;;5095677;27;45525;-71
2022/06/19 07:02:18;;;;;;;;;3.00;1.00;;;;;;;;5094672;27;45401;-71
2022/06/19 07:04:43;;;;;;;;;1.00;1.00;;;;;;;;5093017;27;45563;-71
2022/06/19 07:07:09;;;;;;;;;2.00;1.33;;;;;;;;5094466;27;46963;-71
2022/06/19 07:09:34;;;;;;;;;1.00;1.00;;;;;;;;5094794;27;45544;-71
2022/06/19 07:11:59;;;;;;;;;0.33;0.33;;;;;;;;5110534;27;45405;-71
2022/06/19 07:14:24;;;;;;;;;2.00;1.00;;;;;;;;5094654;27;45405;-70
2022/06/19 07:16:49;;;;;;;;;1.00;1.00;;;;;;;;5092595;27;47235;-71
2022/06/19 07:19:15;;;;;;;;;0.00;0.00;;;;;;;;5094465;27;45244;-71
2022/06/19 07:21:40;;;;;;;;;1.67;1.00;;;;;;;;5092593;27;45373;-71
2022/06/19 07:24:05;;;;;;;;;1.00;0.67;;;;;;;;5094354;27;45482;-71
2022/06/19 07:26:31;;;;;;;;;0.67;0.33;;;;;;;;5094744;27;45684;-71
2022/06/19 07:28:56;;;;;;;;;1.00;1.00;;;;;;;;5094048;27;45244;-71
2022/06/19 07:31:21;;;;;;;;;0.67;0.33;;;;;;;;5093714;27;45695;-72
2022/06/19 07:33:47;;;;;;;;;1.67;0.33;;;;;;;;5093845;27;45199;-73
2022/06/19 07:36:14;;;;;;;;;1.00;1.00;;;;;;;;5095207;27;46591;-72
2022/06/19 07:38:39;;;;;;;;;2.00;2.00;;;;;;;;5093741;27;45326;-73
2022/06/19 07:41:04;;;;;;;;;1.00;1.00;;;;;;;;5092519;27;45712;-72
2022/06/19 07:43:30;;;;;;;;;2.00;1.00;;;;;;;;5094023;27;45357;-74
2022/06/19 07:45:55;;;;;;;;;3.00;2.00;;;;;;;;5092250;27;46379;-72
2022/06/19 07:51:04;;;;;;;;;4.00;1.00;;;;;;;;5092067;27;45441;-71
2022/06/19 07:53:29;;;;;;;;;2.00;1.00;;;;;;;;5094543;27;45340;-71
2022/06/19 07:55:54;;;;;;;;;3.00;1.00;;;;;;;;5093448;27;45491;-71
2022/06/19 07:58:20;;;;;;;;;0.33;0.33;;;;;;;;5093320;27;45601;-71
2022/06/19 08:00:45;;;;;;;;;1.67;0.67;;;;;;;;5093662;27;45472;-72
2022/06/19 08:03:10;;;;;;;;;3.00;1.33;;;;;;;;5094725;27;45386;-71
2022/06/19 08:05:36;;;;;;;;;4.67;1.67;;;;;;;;5092764;27;45485;-71
2022/06/19 08:08:03;;;;;;;;;3.33;2.00;;;;;;;;5092448;27;45326;-71
2022/06/19 08:10:38;;;;;;;;;3.00;3.00;;;;;;;;5096133;27;45442;-71
2022/06/19 08:13:04;;;;;;;;;3.00;1.00;;;;;;;;5103753;27;45249;-73
2022/06/19 08:15:30;;;;;;;;;1.67;1.67;;;;;;;;5103512;27;46210;-71
2022/06/19 08:17:56;;;;;;;;;3.33;3.00;;;;;;;;5101308;27;45463;-71
2022/06/19 08:20:21;;;;;;;;;4.00;4.00;;;;;;;;5094182;27;45544;-71
2022/06/19 08:22:47;;;;;;;;;5.00;5.00;;;;;;;;5091961;27;45189;-71
2022/06/19 08:25:14;;;;;;;;;2.00;2.00;;;;;;;;5092489;27;46941;-71
2022/06/19 08:27:41;;;;;;;;;4.00;2.00;;;;;;;;5092657;27;45509;-71
2022/06/19 08:30:08;;;;;;;;;5.00;3.00;;;;;;;;5092996;27;45420;-71
2022/06/19 08:32:34;;;;;;;;;3.33;1.67;;;;;;;;5094010;27;45577;-71
2022/06/19 08:34:59;;;;;;;;;2.67;2.00;;;;;;;;5092272;27;45403;-71
2022/06/19 08:37:24;;;;;;;;;2.00;2.00;;;;;;;;5092547;27;45479;-73
2022/06/19 08:39:49;;;;;;;;;5.00;3.00;;;;;;;;5092718;27;45338;-71
2022/06/19 08:42:27;;;;;;;;;4.00;3.00;;;;;;;;5092359;27;45370;-71
2022/06/19 08:45:04;;;;;;;;;6.00;2.33;;;;;;;;5094200;27;46029;-71
2022/06/19 08:47:38;;;;;;;;;4.00;4.00;;;;;;;;5092624;27;45402;-72
2022/06/19 08:50:22;;;;;;;;;4.67;3.00;;;;;;;;5093542;27;45335;-72
2022/06/19 08:53:06;;;;;;;;;5.33;4.00;;;;;;;;5091380;27;45498;-73
2022/06/19 08:55:44;;;;;;;;;4.67;3.67;;;;;;;;5090932;27;46175;-72
2022/06/19 08:58:12;;;;;;;;;3.00;3.00;;;;;;;;5092477;27;45471;-75
2022/06/19 09:00:49;;;;;;;;;5.67;4.67;;;;;;;;5091962;27;45357;-73
2022/06/19 09:03:26;;;;;;;;;4.00;3.00;;;;;;;;5094081;27;45377;-75
2022/06/19 09:06:12;;;;;;;;;7.00;5.67;;;;;;;;5093375;27;46218;-72
2022/06/19 09:08:41;;;;;;;;;4.00;3.00;;;;;;;;5094332;27;45468;-73
2022/06/19 09:11:28;;;;;;;;;3.00;3.00;;;;;;;;5092592;27;45455;-73
2022/06/19 09:14:03;;;;;;;;;6.67;2.33;;;;;;;;5092079;27;45462;-72
2022/06/19 09:16:39;;;;;;;;;7.67;4.33;;;;;;;;5092408;27;47341;-73
2022/06/19 09:19:10;;;;;;;;;2.33;2.33;;;;;;;;5096204;27;45474;-72
2022/06/19 09:21:38;;;;;;;;;5.00;4.00;;;;;;;;5094418;27;45423;-72
2022/06/19 09:24:29;;;;;;;;;5.00;2.00;;;;;;;;5097745;27;45354;-72
2022/06/19 09:26:59;;;;;;;;;5.00;2.00;;;;;;;;5054392;28;46077;-72
2022/06/19 09:29:30;;;;;;;;;2.00;2.00;;;;;;;;5051121;28;45789;-72
2022/06/19 09:31:59;;;;;;;;;2.00;2.00;;;;;;;;5052660;28;45363;-72
2022/06/19 09:34:29;;;;;;;;;2.67;1.33;;;;;;;;5036835;28;45558;-72
2022/06/19 09:37:14;;;;;;;;;3.67;2.67;;;;;;;;5053809;28;45277;-72
2022/06/19 09:39:46;;;;;;;;;4.67;4.00;;;;;;;;5049119;28;45792;-72
2022/06/19 09:42:31;;;;;;;;;3.67;3.67;;;;;;;;5052965;28;45379;-72
2022/06/19 09:45:15;;;;;;;;;3.00;2.67;;;;;;;;5054922;28;45475;-72
2022/06/19 09:47:47;;;;;;;;;3.00;2.00;;;;;;;;5054662;28;46239;-72
2022/06/19 09:50:17;;;;;;;;;1.67;1.67;;;;;;;;5053500;28;45613;-72
2022/06/19 09:52:47;;;;;;;;;5.00;4.00;;;;;;;;5051432;28;45475;-72
2022/06/19 09:55:33;;;;;;;;;4.00;2.00;;;;;;;;5050363;28;45515;-72
2022/06/19 09:57:58;;;;;;;;;2.33;2.33;;;;;;;;5051256;28;46730;-72
2022/06/19 10:00:26;;;;;;;;;3.33;3.33;;;;;;;;5052853;28;45595;-72
2022/06/19 10:02:54;;;;;;;;;2.67;2.67;;;;;;;;5058198;28;45407;-73
2022/06/19 10:05:38;;;;;;;;;3.00;2.00;;;;;;;;5092898;27;45358;-73
2022/06/19 10:08:09;;;;;;;;;2.33;2.33;;;;;;;;5095090;27;46302;-72
2022/06/19 10:10:40;;;;;;;;;2.33;2.33;;;;;;;;5094783;27;45564;-72
2022/06/19 10:13:25;;;;;;;;;2.67;2.67;;;;;;;;5095270;27;45418;-73
2022/06/19 10:15:52;;;;;;;;;5.33;3.67;;;;;;;;5054078;28;45526;-72
2022/06/19 10:18:20;;;;;;;;;3.67;3.67;;;;;;;;5052042;28;46290;-73
2022/06/19 10:20:49;;;;;;;;;2.00;2.00;;;;;;;;5054158;28;45517;-73
2022/06/19 10:23:21;;;;;;;;;4.00;4.00;;;;;;;;5050803;28;45462;-73
2022/06/19 10:25:52;;;;;;;;;3.00;1.33;;;;;;;;5052480;28;45416;-73
2022/06/19 10:28:22;;;;;;;;;3.00;3.00;;;;;;;;5050060;28;46212;-72
2022/06/19 10:31:00;;;;;;;;;4.00;3.00;;;;;;;;5052030;28;45340;-72
2022/06/19 10:33:41;;;;;;;;;5.67;2.33;;;;;;;;5051934;28;45481;-72
2022/06/19 10:36:06;;;;;;;;;2.33;2.33;;;;;;;;5053716;28;45345;-73
2022/06/19 10:38:31;;;;;;;;;3.00;3.00;;;;;;;;5051581;28;45490;-72
2022/06/19 10:40:59;;;;;;;;;4.00;2.00;;;;;;;;5067515;28;45493;-72
2022/06/19 10:43:30;;;;;;;;;2.67;2.67;;;;;;;;5050505;28;45407;-73
2022/06/19 10:45:56;;;;;;;;;2.00;2.00;;;;;;;;5052103;28;45572;-73
2022/06/19 10:48:32;;;;;;;;;2.00;2.00;;;;;;;;5051904;28;45569;-72
2022/06/19 10:51:09;;;;;;;;;3.00;3.00;;;;;;;;5053917;28;46026;-72
2022/06/19 10:54:13;;;;;;;;;3.00;1.00;;;;;;;;5083684;27;45427;-72
2022/06/19 10:56:47;;;;;;;;;1.33;1.33;;;;;;;;5056175;28;45400;-72
2022/06/19 10:59:13;;;;;;;;;3.00;2.00;;;;;;;;5022102;28;46145;-73
2022/06/19 11:04:53;;;;;;;;;2.33;2.33;;;;;;;;5001179;28;45688;-72
2022/06/19 11:07:20;;;;;;;;;2.00;2.00;;;;;;;;4992813;28;45572;-72
2022/06/19 11:09:47;;;;;;;;;3.00;2.33;;;;;;;;4992900;28;46109;-72
2022/06/19 11:12:18;;;;;;;;;3.67;2.67;;;;;;;;4993834;28;45934;-73
2022/06/19 11:14:47;;;;;;;;;3.00;3.00;;;;;;;;4993128;28;45366;-72
2022/06/19 11:17:14;;;;;;;;;5.33;3.00;;;;;;;;4993024;28;45591;-73
2022/06/19 11:19:42;;;;;;;;;7.00;2.67;;;;;;;;4993124;28;45464;-72
2022/06/19 11:22:19;;;;;;;;;5.00;1.67;;;;;;;;4996028;28;45490;-72
2022/06/19 11:24:44;;;;;;;;;2.67;2.67;;;;;;;;4993650;28;45550;-72
2022/06/19 11:27:18;;;;;;;;;3.33;3.00;;;;;;;;5009478;28;45808;-72
2022/06/19 11:29:45;;;;;;;;;6.33;3.33;;;;;;;;5045651;28;45379;-72
2022/06/19 11:32:13;;;;;;;;;2.67;2.67;;;;;;;;5052010;28;45362;-73
2022/06/19 11:34:43;;;;;;;;;3.00;3.00;;;;;;;;5046098;28;45503;-72
2022/06/19 11:37:10;;;;;;;;;3.00;3.00;;;;;;;;5052160;28;45510;-73
2022/06/19 11:39:37;;;;;;;;;2.67;1.33;;;;;;;;5050652;28;46956;-72
2022/06/19 11:42:18;;;;;;;;;3.00;2.67;;;;;;;;5074136;27;45394;-72
2022/06/19 11:44:54;;;;;;;;;2.67;2.67;;;;;;;;5094338;27;45347;-73
2022/06/19 11:47:24;;;;;;;;;3.00;3.00;;;;;;;;5086744;27;45513;-72
2022/06/19 11:49:50;;;;;;;;;2.00;2.00;;;;;;;;5093703;27;47015;-73
2022/06/19 11:52:20;;;;;;;;;4.33;3.33;;;;;;;;5092264;27;45353;-73
2022/06/19 11:54:46;;;;;;;;;2.33;2.00;;;;;;;;5092685;27;45436;-72
2022/06/19 11:57:21;;;;;;;;;3.33;3.33;;;;;;;;5094633;27;45524;-72
2022/06/19 11:59:54;;;;;;;;;2.33;2.33;;;;;;;;5094402;27;46387;-72
2022/06/19 12:02:22;;;;;;;;;3.33;2.67;;;;;;;;5093373;27;45655;-72
2022/06/19 12:04:53;;;;;;;;;2.67;2.67;;;;;;;;5094034;27;45812;-72
2022/06/19 12:07:20;;;;;;;;;2.25;1.75;;;;;;;;5093215;27;45373;-72
2022/06/19 12:10:14;;;;;;;;;2.67;2.67;;;;;;;;5091748;27;46248;-73
2022/06/19 12:12:50;;;;;;;;;3.00;2.00;;;;;;;;5079547;27;45571;-72
2022/06/19 12:15:27;;;;;;;;;2.00;2.00;;;;;;;;5093767;27;45365;-72
2022/06/19 12:17:56;;;;;;;;;3.00;2.67;;;;;;;;5094969;27;45532;-72
2022/06/19 12:20:24;;;;;;;;;2.67;2.67;;;;;;;;5093029;27;46095;-73
2022/06/19 12:22:49;;;;;;;;;3.00;1.00;;;;;;;;5093269;27;45445;-72
2022/06/19 12:25:33;;;;;;;;;4.33;3.00;;;;;;;;5094276;27;45346;-73
2022/06/19 12:27:58;;;;;;;;;3.33;3.33;;;;;;;;5094021;27;45480;-72
2022/06/19 12:30:27;;;;;;;;;1.00;1.00;;;;;;;;5093453;27;45563;-73
2022/06/19 12:32:55;;;;;;;;;2.00;1.67;;;;;;;;5093600;27;45430;-73
2022/06/19 12:35:24;;;;;;;;;2.33;2.00;;;;;;;;5092769;27;45633;-72
2022/06/19 12:37:50;;;;;;;;;2.00;1.00;;;;;;;;5093220;27;45464;-73
2022/06/19 12:40:16;;;;;;;;;1.33;0.33;;;;;;;;5092841;27;46082;-73
2022/06/19 12:42:56;;;;;;;;;1.00;1.00;;;;;;;;5093224;27;45475;-73
2022/06/19 12:45:40;;;;;;;;;2.00;2.00;;;;;;;;5093647;27;45534;-73
2022/06/19 12:48:05;;;;;;;;;1.67;1.67;;;;;;;;5091143;27;45599;-73
2022/06/19 12:50:39;;;;;;;;;3.67;2.67;;;;;;;;5093754;27;47161;-73
2022/06/19 12:53:15;;;;;;;;;3.00;3.00;;;;;;;;5097776;27;45509;-73
2022/06/19 12:56:00;;;;;;;;;3.67;3.00;;;;;;;;5095977;27;45424;-73
2022/06/19 12:58:31;;;;;;;;;2.00;2.00;;;;;;;;5095210;27;45589;-72
2022/06/19 13:01:04;;;;;;;;;1.67;1.67;;;;;;;;5095478;27;46251;-73
2022/06/19 13:03:47;;;;;;;;;2.00;2.00;;;;;;;;5096649;27;45461;-73
2022/06/19 13:06:15;;;;;;;;;1.33;1.33;;;;;;;;5094770;27;45319;-73
2022/06/19 13:08:52;;;;;;;;;2.67;2.67;;;;;;;;5098451;27;45433;-72
2022/06/19 13:11:18;;;;;;;;;2.33;2.33;;;;;;;;5096251;27;46865;-72
2022/06/19 13:13:52;;;;;;;;;2.00;1.33;;;;;;;;5096395;27;45496;-72
2022/06/19 13:16:26;;;;;;;;;2.00;2.00;;;;;;;;5096250;27;49026;-73
2022/06/19 13:19:00;;;;;;;;;3.00;2.00;;;;;;;;5094773;27;45484;-73
2022/06/19 13:21:35;;;;;;;;;2.00;2.00;;;;;;;;5095891;27;47168;-72
2022/06/19 13:24:16;;;;;;;;;2.67;2.67;;;;;;;;5094346;27;45366;-72
2022/06/19 13:29:28;;;;;;;;;3.33;2.33;;;;;;;;5096688;27;45439;-73
2022/06/19 13:31:56;;;;;;;;;4.00;2.00;;;;;;;;5094341;27;45517;-73
2022/06/19 13:34:22;;;;;;;;;3.67;2.00;;;;;;;;5095096;27;45483;-73
2022/06/19 13:36:50;;;;;;;;;3.00;3.00;;;;;;;;5094536;27;45463;-73
2022/06/19 13:39:15;;;;;;;;;4.33;3.00;;;;;;;;5096993;27;45405;-73
2022/06/19 13:42:13;;;;;;;;;4.00;3.00;;;;;;;;5095775;27;46094;-72
2022/06/19 13:44:38;;;;;;;;;4.00;2.00;;;;;;;;5054266;28;45455;-73
2022/06/19 13:47:22;;;;;;;;;3.00;2.00;;;;;;;;5051748;28;45531;-72
2022/06/19 13:49:55;;;;;;;;;3.00;3.00;;;;;;;;5051412;28;45390;-73
2022/06/19 13:52:39;;;;;;;;;3.00;3.00;;;;;;;;5052144;28;45719;-73
2022/06/19 13:55:23;;;;;;;;;3.00;3.00;;;;;;;;5051326;28;45504;-73
2022/06/19 13:57:55;;;;;;;;;3.00;3.00;;;;;;;;5049831;28;45639;-73
2022/06/19 14:00:21;;;;;;;;;3.00;3.00;;;;;;;;5053074;28;45531;-73
2022/06/19 14:02:52;;;;;;;;;2.00;2.00;;;;;;;;5049523;28;46006;-72
2022/06/19 14:05:29;;;;;;;;;4.00;2.67;;;;;;;;5053536;28;45466;-73
2022/06/19 14:08:08;;;;;;;;;1.33;1.33;;;;;;;;5053316;28;45494;-73
2022/06/19 14:10:35;;;;;;;;;3.67;2.67;;;;;;;;5049554;28;45460;-73
2022/06/19 14:13:03;;;;;;;;;3.00;3.00;;;;;;;;5046716;28;46194;-73
2022/06/19 14:15:39;;;;;;;;;4.33;2.67;;;;;;;;5052422;28;45589;-73
2022/06/19 14:18:04;;;;;;;;;2.00;2.00;;;;;;;;5054098;28;45338;-73
2022/06/19 14:20:31;;;;;;;;;2.33;2.33;;;;;;;;5080068;27;45623;-73
2022/06/19 14:23:11;;;;;;;;;1.67;1.67;;;;;;;;5094814;27;45360;-73
2022/06/19 14:25:44;;;;;;;;;5.33;2.33;;;;;;;;5094211;27;45341;-73
2022/06/19 14:28:12;;;;;;;;;2.33;2.33;;;;;;;;5095031;27;45356;-73
2022/06/19 14:30:44;;;;;;;;;2.00;1.67;;;;;;;;5095084;27;45400;-73
2022/06/19 14:33:29;;;;;;;;;3.00;3.00;;;;;;;;5096005;27;46179;-73
2022/06/19 14:36:09;;;;;;;;;2.67;1.67;;;;;;;;5096491;27;45893;-73
2022/06/19 14:38:34;;;;;;;;;2.67;2.00;;;;;;;;5094806;27;45539;-73
2022/06/19 14:41:05;;;;;;;;;2.33;2.33;;;;;;;;5093429;27;45427;-73
2022/06/19 14:43:33;;;;;;;;;2.67;2.67;;;;;;;;5096473;27;46173;-73
2022/06/19 14:45:58;;;;;;;;;2.00;2.00;;;;;;;;5093604;27;45393;-73
2022/06/19 14:48:35;;;;;;;;;2.50;2.50;;;;;;;;5095015;27;45315;-73
2022/06/19 14:51:00;;;;;;;;;3.00;3.00;;;;;;;;5093413;27;45299;-72
2022/06/19 14:53:37;;;;;;;;;2.00;2.00;;;;;;;;5094386;27;46238;-73
2022/06/19 14:56:09;;;;;;;;;2.00;2.00;;;;;;;;5091002;27;46168;-73
2022/06/19 14:58:42;;;;;;;;;3.00;3.00;;;;;;;;5093422;27;45381;-73
2022/06/19 15:01:17;;;;;;;;;2.33;2.33;;;;;;;;5094226;27;45390;-73